• Join FlightAware (Why Join?)
  • Login
  • US Flag 
09:54PM EDT


 

Airport Tracker/Info


-or-


 

Live Flight TrackerFlight Track Log ✈ AAL832 ✈ 17-Jun-2013 ✈ KLAX - KORD

Flight Track Log - Related Links

Times and Time Zones

All times are in EDT time to prevent confusion due to time zone crossing. See the AAL832 flight status page for this flight to view local times or setup timezone preferences in your user account.

Time Position Orientation Groundspeed Altitude Reporting Facility
EDT Latitude Longitude Course Direction KTS MPH feet Rate Location/Type
12:46PM 33.9344 -118.4444 59° Northeast 177 204 1,500  Level Los Angeles Center
12:47PM 33.9139 -118.5150 251° West 211 243 2,700 1,440 Climbing Los Angeles Center
12:48PM 33.8825 -118.5947 245° Southwest 263 303 4,500 1,740 Climbing Los Angeles Center
12:49PM 34.1348 -118.0637 59° Northeast  Level FlightAware Approximate
12:50PM 34.2020 -117.9295 59° Northeast  Level FlightAware Approximate
12:50PM 33.8086 -118.5728 166° South 289 333 6,400  Level Los Angeles Center
12:51PM 34.2699 -117.7959 46° Northeast  Level FlightAware Approximate
12:51PM 33.8422 -118.4978 62° Northeast 291 335 8,300  Level Los Angeles Center
12:52PM 34.3530 -117.6774 59° Northeast  Level FlightAware Approximate
12:52PM 33.9156 -118.4453 31° Northeast 297 342 10,500  Level Los Angeles Center
12:53PM 33.9753 -118.3603 50° Northeast 336 387 11,800 1,740 Climbing Los Angeles Center
12:54PM 34.0308 -118.2614 56° Northeast 350 403 14,100 1,800 Climbing Los Angeles Center
12:55PM 34.0911 -118.1558 55° Northeast 375 432 15,600 1,500 Climbing Los Angeles Center
12:56PM 34.1564 -118.0383 56° Northeast 414 476 17,300 1,560 Climbing Los Angeles Center
12:57PM 34.2258 -117.9178 55° Northeast 432 497 18,900 1,740 Climbing Los Angeles Center
12:58PM 34.3097 -117.7647 56° Northeast 454 522 21,000 1,800 Climbing Los Angeles Center
12:59PM 34.3842 -117.6342 55° Northeast 465 535 22,700 1,620 Climbing Los Angeles Center
01:00PM 34.4619 -117.4914 57° Northeast 479 551 24,400 1,500 Climbing Los Angeles Center
01:01PM 34.5358 -117.3550 57° Northeast 486 559 25,900 1,380 Climbing Los Angeles Center
01:02PM 34.6122 -117.2172 56° Northeast 494 568 27,300 1,380 Climbing Los Angeles Center
01:03PM 34.6992 -117.0886 51° Northeast 497 572 28,800 1,440 Climbing Los Angeles Center
01:04PM 34.7900 -116.9644 48° Northeast 495 570 30,300 1,440 Climbing Los Angeles Center
01:05PM 34.8986 -116.8153 48° Northeast 494 568 31,800 1,200 Climbing Los Angeles Center
01:06PM 34.9914 -116.6900 48° Northeast 497 572 32,900 900 Climbing Los Angeles Center
01:07PM 35.0825 -116.5619 49° Northeast 502 578 33,900 900 Climbing Los Angeles Center
01:08PM 35.1925 -116.4094 49° Northeast 503 579 35,000 480 Climbing Los Angeles Center
01:09PM 35.3031 -116.2561 49° Northeast 502 578 35,000  Level Los Angeles Center
01:10PM 35.3936 -116.1281 49° Northeast 501 577 35,000  Level Los Angeles Center
01:11PM 35.4856 -116.0008 48° Northeast 499 574 35,000  Level Los Angeles Center
01:13PM 35.5831 -115.8658 48° Northeast 494 568 35,000  Level Los Angeles Center
01:14PM 35.6733 -115.7389 49° Northeast 493 567 35,000  Level Los Angeles Center
01:15PM 35.7625 -115.6131 49° Northeast 491 565 35,000  Level Los Angeles Center
01:16PM 35.8517 -115.4869 49° Northeast 490 564 35,000 480 Level Los Angeles Center
01:17PM 35.9572 -115.3347 49° Northeast 491 565 36,000 720 Climbing Los Angeles Center
01:18PM 36.0442 -115.2108 49° Northeast 483 556 36,600 480 Climbing Los Angeles Center
01:19PM 36.1108 -115.0614 61° Northeast 498 573 37,000 180 Climbing Los Angeles Center
01:20PM 36.1603 -114.8989 69° East 508 585 37,000  Level Los Angeles Center
01:21PM 36.2103 -114.7367 69° East 508 585 37,000  Level Los Angeles Center
01:22PM 36.2678 -114.5400 70° East 507 583 37,000  Level Los Angeles Center
01:23PM 36.3161 -114.3769 70° East 506 582 37,000  Level Los Angeles Center
01:24PM 36.3633 -114.2150 70° East 503 579 37,000  Level Los Angeles Center
01:25PM 36.4119 -114.0525 70° East 503 579 37,000  Level Los Angeles Center
01:26PM 36.4606 -113.8906 69° East 502 578 37,000  Level Los Angeles Center
01:27PM 36.5128 -113.7106 70° East 503 579 37,000  Level Los Angeles Center
01:28PM 36.5606 -113.5469 70° East 505 581 37,000  Level Los Angeles Center
01:29PM 36.6069 -113.3839 70° East 504 580 37,000  Level Los Angeles Center
01:30PM 36.6644 -113.1886 70° East 504 580 37,000  Level Los Angeles Center
01:31PM 36.7108 -113.0258 70° East 502 578 37,000  Level Los Angeles Center
01:32PM 36.7572 -112.8639 70° East 501 577 37,000  Level Los Angeles Center
01:33PM 36.8031 -112.7022 70° East 499 574 37,000  Level Los Angeles Center
01:34PM 36.8497 -112.5411 70° East 498 573 37,000  Level Los Angeles Center
01:35PM 36.9042 -112.3475 71° East 496 571 37,000  Level Los Angeles Center
01:36PM 36.9486 -112.1856 71° East 495 570 37,000  Level Los Angeles Center
01:37PM 36.9936 -112.0231 71° East 497 572 37,000  Level Los Angeles Center
01:39PM 37.0378 -111.8589 71° East 499 574 37,000  Level Los Angeles Center
01:40PM 37.0872 -111.6606 73° East 501 577 37,000  Level Los Angeles Center
01:41PM 37.1308 -111.4936 72° East 504 580 37,000  Level Denver Center
01:42PM 37.1722 -111.3297 72° East 501 577 37,000  Level Denver Center
01:43PM 37.2133 -111.1639 73° East 502 578 37,000  Level Denver Center
01:44PM 37.2628 -110.9667 72° East 496 571 37,000  Level Denver Center
01:45PM 37.3039 -110.7994 73° East 502 578 37,000  Level Denver Center
01:46PM 37.3450 -110.6344 73° East 497 572 37,000  Level Denver Center
01:47PM 37.3858 -110.4686 73° East 499 574 37,000  Level Denver Center
01:48PM 37.4267 -110.3028 73° East 498 573 37,000  Level Denver Center
01:49PM 37.4742 -110.1056 73° East 497 572 37,000  Level Denver Center
01:50PM 37.5128 -109.9464 73° East 496 571 37,000  Level Denver Center
01:51PM 37.5550 -109.7864 72° East 500 575 37,000  Level Denver Center
01:52PM 37.6031 -109.6008 72° East 499 574 37,000  Level Denver Center
01:53PM 37.6444 -109.4406 72° East 501 577 37,000  Level Denver Center
01:54PM 37.6917 -109.2528 72° East 501 577 37,000  Level Denver Center
01:55PM 37.7311 -109.0917 73° East 501 577 37,000  Level Denver Center
01:56PM 37.7783 -108.9067 72° East 496 571 37,000  Level Denver Center
01:57PM 37.8178 -108.7467 73° East 496 571 37,000  Level Denver Center
01:58PM 37.8633 -108.5617 73° East 494 568 37,000  Level Denver Center
01:59PM 37.9011 -108.4050 73° East 489 563 37,000  Level Denver Center
02:00PM 37.9469 -108.2181 73° East 496 571 37,000  Level Denver Center
02:01PM 37.9861 -108.0594 73° East 492 566 37,000  Level Denver Center
02:02PM 38.0317 -107.8728 73° East 495 570 37,000  Level Denver Center
02:03PM 38.0747 -107.7128 71° East 500 575 37,000  Level Denver Center
02:04PM 38.1158 -107.5494 72° East 495 570 37,000  Level Denver Center
02:05PM 38.1642 -107.3631 72° East 499 574 37,000  Level Denver Center
02:06PM 38.2047 -107.2033 72° East 498 573 37,000  Level Denver Center
02:07PM 38.2433 -107.0444 73° East 497 572 37,000  Level Denver Center
02:09PM 38.2939 -106.8433 72° East 498 573 37,000  Level Denver Center
02:10PM 38.3364 -106.6689 73° East 497 572 37,000  Level Denver Center
02:11PM 38.3761 -106.5078 72° East 499 574 37,000  Level Denver Center
02:12PM 38.4164 -106.3406 73° East 498 573 37,000  Level Denver Center
02:13PM 38.4597 -106.1633 73° East 496 571 37,000  Level Denver Center
02:14PM 38.5044 -105.9744 73° East 497 572 37,000  Level Denver Center
02:15PM 38.5281 -105.7933 80° East 498 573 37,000  Level Denver Center
02:16PM 38.5542 -105.6197 79° East 498 573 37,000  Level Denver Center
02:17PM 38.5775 -105.4456 80° East 500 575 37,000  Level Denver Center
02:18PM 38.6014 -105.2708 80° East 501 577 37,000  Level Denver Center
02:19PM 38.6244 -105.0956 80° East 503 579 37,000  Level Denver Center
02:20PM 38.6539 -104.8842 80° East 506 582 37,000  Level Denver Center
02:21PM 38.6767 -104.7089 80° East 504 580 37,000  Level Denver Center
02:22PM 38.7003 -104.5311 80° East 508 585 37,000  Level Denver Center
02:23PM 38.7222 -104.3547 81° East 505 581 37,000  Level Denver Center
02:24PM 38.7450 -104.1806 80° East 501 577 37,000  Level Denver Center
02:25PM 38.7717 -103.9758 80° East 498 573 37,000  Level Denver Center
02:26PM 38.7908 -103.8067 82° East 499 574 37,000  Level Denver Center
02:27PM 38.8164 -103.6103 80° East 500 575 37,000  Level Denver Center
02:28PM 38.8353 -103.4428 82° East 496 571 37,000  Level Denver Center
02:29PM 38.8561 -103.2739 81° East 498 573 37,000  Level Denver Center
02:30PM 38.8811 -103.0647 81° East 498 573 37,000  Level Denver Center
02:31PM 38.9006 -102.8903 82° East 497 572 37,000  Level Denver Center
02:32PM 38.9206 -102.7261 81° East 496 571 37,000  Level Denver Center
02:33PM 38.9425 -102.5292 82° East 498 573 37,000  Level Denver Center
02:34PM 38.9597 -102.3611 82° East 495 570 37,000  Level Denver Center
02:35PM 38.9825 -102.1647 81° East 496 571 37,000  Level Denver Center
02:36PM 39.0003 -101.9958 82° East 498 573 37,000  Level Denver Center
02:37PM 39.0286 -101.8003 79° East 497 572 37,000  Level Denver Center
02:39PM 39.0533 -101.6219 80° East 496 571 37,000  Level Denver Center
02:40PM 39.0758 -101.4558 80° East 494 568 37,000  Level Denver Center
02:41PM 39.1031 -101.2603 80° East 497 572 37,000  Level Denver Center
02:42PM 39.1261 -101.0917 80° East 499 574 37,000  Level Denver Center
02:43PM 39.1519 -100.8983 80° East 495 570 37,000  Level Denver Center
02:44PM 39.1736 -100.7342 80° East 489 563 37,000 240 Level Denver Center
02:45PM 39.1986 -100.5403 80° East 492 566 37,600 600 Climbing Denver Center
02:46PM 39.2192 -100.3750 81° East 490 564 38,300 600 Climbing Denver Center
02:47PM 39.2450 -100.1803 80° East 493 567 38,900 300 Climbing Denver Center
02:48PM 39.2658 -100.0133 81° East 493 567 39,000  Climbing Denver Center
02:49PM 39.2906 -99.8183 81° East 495 570 39,000  Level Denver Center
02:50PM 39.3103 -99.6506 81° East 494 568 39,000  Level Denver Center
02:51PM 39.3339 -99.4567 81° East 492 566 39,000  Level Denver Center
02:52PM 39.3542 -99.2917 81° East 489 563 39,000  Level Denver Center
02:53PM 39.3733 -99.1261 81° East 490 564 39,000  Level Denver Center
02:54PM 39.3964 -98.9350 81° East 486 559 39,000  Level Denver Center
02:55PM 39.4153 -98.7683 82° East 493 567 39,000  Level Denver Center
02:56PM 39.4386 -98.5575 82° East 495 570 39,000  Level Denver Center
02:56PM 39.4436 -98.5194 80° East 500 575 39,000  Level Kansas City Center
02:58PM 39.4664 -98.3086 82° East 496 571 39,000  Level Kansas City Center
02:59PM 39.4861 -98.1353 82° East 495 570 39,000  Level Kansas City Center
03:00PM 39.5075 -97.9419 82° East 500 575 39,000  Level Kansas City Center
03:01PM 39.5317 -97.7789 79° East 497 572 39,000  Level Kansas City Center
03:02PM 39.5617 -97.5692 79° East 497 572 39,000  Level Kansas City Center
03:03PM 39.5850 -97.3950 80° East 493 567 39,000  Level Kansas City Center
03:04PM 39.6106 -97.2178 79° East 499 574 39,000  Level Kansas City Center
03:05PM 39.6297 -97.0631 81° East 495 570 39,000  Level Kansas City Center
03:06PM 39.6581 -96.8517 80° East 495 570 39,000  Level Kansas City Center
03:07PM 39.6817 -96.6731 80° East 494 568 39,000  Level Kansas City Center
03:08PM 39.7036 -96.5056 80° East 492 566 39,000  Level Kansas City Center
03:09PM 39.7289 -96.3094 80° East 490 564 39,000  Level Kansas City Center
03:10PM 39.7497 -96.1417 81° East 490 564 39,000  Level Kansas City Center
03:11PM 39.7744 -95.9469 81° East 489 563 39,000  Level Kansas City Center
03:12PM 39.7958 -95.7769 81° East 495 570 39,000  Level Kansas City Center
03:13PM 39.8164 -95.6072 81° East 493 567 39,000  Level Kansas City Center
03:14PM 39.8392 -95.4083 81° East 496 571 39,000  Level Kansas City Center
03:15PM 39.8600 -95.2383 81° East 494 568 39,000  Level Kansas City Center
03:16PM 39.8833 -95.0386 81° East 496 571 39,000  Level Kansas City Center
03:17PM 39.9036 -94.8672 81° East 499 574 39,000  Level Kansas City Center
03:18PM 39.9267 -94.6653 81° East 502 578 39,000  Level Kansas City Center
03:19PM 39.9464 -94.4925 81° East 503 579 39,000  Level Kansas City Center
03:20PM 39.9678 -94.2914 82° East 502 578 39,000  Level Kansas City Center
03:21PM 39.9869 -94.1189 82° East 502 578 39,000  Level Kansas City Center
03:22PM 40.0064 -93.9203 83° East 510 587 39,000  Level Kansas City Center
03:23PM 40.0250 -93.7428 82° East 504 580 39,000  Level Kansas City Center
03:24PM 40.0411 -93.5650 83° East 500 575 39,000  Level Kansas City Center
03:26PM 40.0589 -93.3844 83° East 504 580 39,000  Level Kansas City Center
03:27PM 40.0775 -93.2044 82° East 507 583 39,000  Level Kansas City Center
03:28PM 40.0972 -92.9886 83° East 504 580 39,000  Level Kansas City Center
03:29PM 40.1136 -92.8122 83° East 508 585 39,000  Level Kansas City Center
03:30PM 40.1325 -92.6072 83° East 508 585 39,000  Level Kansas City Center
03:31PM 40.1875 -92.4453 66° East 509 586 39,000  Level Kansas City Center
03:32PM 40.2536 -92.2617 65° Northeast 525 604 39,000  Level Kansas City Center
03:33PM 40.3142 -92.0953 64° Northeast 519 597 39,000  Level Kansas City Center
03:34PM 40.3739 -91.9283 65° Northeast 514 592 39,000 -480 Level Kansas City Center
03:35PM 40.4458 -91.7256 65° Northeast 515 593 38,100 -1,680 Descending Kansas City Center
03:36PM 40.5025 -91.5547 66° East 516 594 35,500 -2,400 Descending Kansas City Center
03:37PM 40.5572 -91.3883 67° East 507 583 33,200 -1,260 Descending Kansas City Center
03:38PM 40.6136 -91.2231 66° East 502 578 33,000 -240 Descending Kansas City Center
03:39PM 40.6708 -91.0578 65° Northeast 502 578 32,700 -720 Descending Kansas City Center
03:40PM 40.7400 -90.8589 65° Northeast 502 578 31,600 -1,020 Descending Kansas City Center
03:41PM 40.7606 -90.6803 81° East 504 580 30,600 -960 Descending Kansas City Center
03:42PM 40.7678 -90.5003 87° East 500 575 29,600 -1,020 Descending Chicago Center
03:43PM 40.7694 -90.3211 89° East 494 568 28,600 -780 Descending Chicago Center
03:44PM 40.7906 -90.1497 81° East 473 544 28,000 -660 Descending Chicago Center
03:45PM 40.8736 -90.0228 49° Northeast 459 528 27,300 -1,200 Descending Chicago Center
03:46PM 40.9756 -89.8675 49° Northeast 466 536 25,600 -1,320 Descending Chicago Center
03:47PM 41.0586 -89.7425 49° Northeast 459 528 24,600 -780 Descending Chicago Center
03:48PM 41.1411 -89.6158 49° Northeast 456 525 24,000 -540 Descending Chicago Center
03:49PM 41.2058 -89.4722 59° Northeast 456 525 23,500 -1,500 Descending Chicago Center
03:50PM 41.2653 -89.3222 62° Northeast 459 528 20,900 -2,700 Descending Chicago Center
03:51PM 41.3342 -89.1539 61° Northeast 437 503 18,000 -2,760 Descending Chicago Center
03:52PM 41.3869 -89.0203 62° Northeast 415 478 15,200 -2,340 Descending Chicago Center
03:53PM 41.4400 -88.8894 62° Northeast 405 466 13,200 -1,920 Descending Chicago Center
03:54PM 41.4889 -88.7656 62° Northeast 387 445 11,300 -1,080 Descending Chicago Center
03:55PM 41.5358 -88.6469 62° Northeast 371 427 11,000 -180 Descending Chicago Center
03:57PM 41.5828 -88.5289 62° Northeast 364 419 11,000 -540 Level Chicago Center
03:58PM 41.6511 -88.3953 56° Northeast 361 415 10,000 -540 Descending Chicago Center
03:59PM 41.7117 -88.2900 52° Northeast 357 411 10,000 -300 Level Chicago Center
04:00PM 41.7686 -88.1917 52° Northeast 338 389 9,500 -1,080 Descending Chicago Center
04:01PM 41.8183 -88.1081 51° Northeast 295 339 7,800 -1,260 Descending Chicago Center
04:02PM 41.8653 -88.0233 53° Northeast 287 330 7,000 -540 Descending Chicago Center
04:02PM 41.8833 -87.9667 67° East 251 289 7,000  Level Chicago TRACON
04:03PM 41.8833 -87.8667 90° East 247 284 7,000 -120 Level Chicago TRACON
04:04PM 41.8842 -87.8331 88° East 233 268 6,900 -900 Descending Chicago Center
04:05PM 41.8842 -87.7561 90° East 213 245 5,600 -1,200 Descending Chicago Center
04:06PM 41.8956 -87.6875 77° East 203 234 4,500 -1,260 Descending Chicago Center
04:07PM 41.9369 -87.7083 339° North 180 207 3,000 -1,020 Descending Chicago Center
04:08PM 41.9678 -87.7564 311° West 171 197 2,400 -780 Descending Chicago Center
04:09PM 41.9689 -87.8275 271° West 168 193 1,500 -600 Descending Chicago Center
04:10PM 41.9703 -87.8792 272° West 163 188 1,200 -300 Descending Chicago Center